sensor_id;sensor_type;location;lat;lon;timestamp;P1;durP1;ratioP1;P2;durP2;ratioP2
77324;SDS011;66387;53.440;10.390;2023-06-10T00:01:39;10.25;;;3.60;;
77324;SDS011;66387;53.440;10.390;2023-06-10T00:04:04;7.60;;;4.10;;
77324;SDS011;66387;53.440;10.390;2023-06-10T00:06:30;5.63;;;3.63;;
77324;SDS011;66387;53.440;10.390;2023-06-10T00:09:00;8.65;;;4.18;;
77324;SDS011;66387;53.440;10.390;2023-06-10T00:11:26;7.15;;;4.07;;
77324;SDS011;66387;53.440;10.390;2023-06-10T00:13:51;8.57;;;3.70;;
77324;SDS011;66387;53.440;10.390;2023-06-10T00:16:17;7.77;;;3.60;;
77324;SDS011;66387;53.440;10.390;2023-06-10T00:18:43;10.00;;;4.72;;
77324;SDS011;66387;53.440;10.390;2023-06-10T00:21:09;5.80;;;4.13;;
77324;SDS011;66387;53.440;10.390;2023-06-10T00:23:34;5.70;;;3.65;;
77324;SDS011;66387;53.440;10.390;2023-06-10T00:26:02;6.60;;;3.67;;
77324;SDS011;66387;53.440;10.390;2023-06-10T00:28:28;7.07;;;3.88;;
77324;SDS011;66387;53.440;10.390;2023-06-10T00:30:53;5.00;;;3.10;;
77324;SDS011;66387;53.440;10.390;2023-06-10T00:33:18;7.73;;;3.73;;
77324;SDS011;66387;53.440;10.390;2023-06-10T00:35:43;8.20;;;3.97;;
77324;SDS011;66387;53.440;10.390;2023-06-10T00:38:09;5.43;;;3.53;;
77324;SDS011;66387;53.440;10.390;2023-06-10T00:40:40;5.13;;;3.47;;
77324;SDS011;66387;53.440;10.390;2023-06-10T00:43:06;6.85;;;3.67;;
77324;SDS011;66387;53.440;10.390;2023-06-10T00:45:32;6.95;;;3.78;;
77324;SDS011;66387;53.440;10.390;2023-06-10T00:47:58;5.40;;;3.08;;
77324;SDS011;66387;53.440;10.390;2023-06-10T00:50:24;6.55;;;3.42;;
77324;SDS011;66387;53.440;10.390;2023-06-10T00:52:50;5.93;;;3.67;;
77324;SDS011;66387;53.440;10.390;2023-06-10T00:55:16;6.97;;;3.90;;
77324;SDS011;66387;53.440;10.390;2023-06-10T00:57:43;8.77;;;3.95;;
77324;SDS011;66387;53.440;10.390;2023-06-10T01:00:10;5.38;;;3.20;;
77324;SDS011;66387;53.440;10.390;2023-06-10T01:02:37;7.63;;;3.42;;
77324;SDS011;66387;53.440;10.390;2023-06-10T01:05:02;4.90;;;3.15;;
77324;SDS011;66387;53.440;10.390;2023-06-10T01:07:30;4.82;;;3.17;;
77324;SDS011;66387;53.440;10.390;2023-06-10T01:10:11;7.57;;;3.22;;
77324;SDS011;66387;53.440;10.390;2023-06-10T01:13:10;5.03;;;2.83;;
77324;SDS011;66387;53.440;10.390;2023-06-10T01:15:37;8.57;;;3.40;;
77324;SDS011;66387;53.440;10.390;2023-06-10T01:18:06;6.47;;;4.00;;
77324;SDS011;66387;53.440;10.390;2023-06-10T01:20:40;6.25;;;3.00;;
77324;SDS011;66387;53.440;10.390;2023-06-10T01:23:08;5.85;;;3.42;;
77324;SDS011;66387;53.440;10.390;2023-06-10T01:25:36;8.00;;;3.25;;
77324;SDS011;66387;53.440;10.390;2023-06-10T01:30:51;7.82;;;3.88;;
77324;SDS011;66387;53.440;10.390;2023-06-10T01:33:26;6.32;;;3.03;;
77324;SDS011;66387;53.440;10.390;2023-06-10T01:35:54;7.38;;;3.10;;
77324;SDS011;66387;53.440;10.390;2023-06-10T01:38:22;7.53;;;3.15;;
77324;SDS011;66387;53.440;10.390;2023-06-10T01:40:50;5.50;;;3.05;;
77324;SDS011;66387;53.440;10.390;2023-06-10T01:43:17;6.40;;;2.90;;
77324;SDS011;66387;53.440;10.390;2023-06-10T01:45:42;5.80;;;2.70;;
77324;SDS011;66387;53.440;10.390;2023-06-10T01:48:08;5.20;;;2.80;;
77324;SDS011;66387;53.440;10.390;2023-06-10T01:50:33;9.40;;;3.00;;
77324;SDS011;66387;53.440;10.390;2023-06-10T01:52:59;6.53;;;2.97;;
77324;SDS011;66387;53.440;10.390;2023-06-10T01:55:24;5.82;;;2.65;;
77324;SDS011;66387;53.440;10.390;2023-06-10T01:57:50;5.10;;;3.00;;
77324;SDS011;66387;53.440;10.390;2023-06-10T02:00:16;6.30;;;2.65;;
77324;SDS011;66387;53.440;10.390;2023-06-10T02:02:42;4.67;;;2.87;;
77324;SDS011;66387;53.440;10.390;2023-06-10T02:05:07;7.80;;;3.50;;
77324;SDS011;66387;53.440;10.390;2023-06-10T02:07:32;5.90;;;2.97;;
77324;SDS011;66387;53.440;10.390;2023-06-10T02:09:58;5.67;;;2.97;;
77324;SDS011;66387;53.440;10.390;2023-06-10T02:12:23;5.83;;;2.83;;
77324;SDS011;66387;53.440;10.390;2023-06-10T02:14:48;6.70;;;3.63;;
77324;SDS011;66387;53.440;10.390;2023-06-10T02:17:14;6.68;;;3.08;;
77324;SDS011;66387;53.440;10.390;2023-06-10T02:19:39;5.03;;;2.92;;
77324;SDS011;66387;53.440;10.390;2023-06-10T02:22:07;6.07;;;2.83;;
77324;SDS011;66387;53.440;10.390;2023-06-10T02:24:36;6.95;;;2.72;;
77324;SDS011;66387;53.440;10.390;2023-06-10T02:27:02;7.65;;;3.22;;
77324;SDS011;66387;53.440;10.390;2023-06-10T02:29:31;6.05;;;2.75;;
77324;SDS011;66387;53.440;10.390;2023-06-10T02:31:57;5.03;;;3.25;;
77324;SDS011;66387;53.440;10.390;2023-06-10T02:34:22;6.53;;;2.60;;
77324;SDS011;66387;53.440;10.390;2023-06-10T02:36:47;6.23;;;3.60;;
77324;SDS011;66387;53.440;10.390;2023-06-10T02:39:16;5.95;;;2.60;;
77324;SDS011;66387;53.440;10.390;2023-06-10T02:41:41;5.13;;;2.70;;
77324;SDS011;66387;53.440;10.390;2023-06-10T02:44:06;5.63;;;2.23;;
77324;SDS011;66387;53.440;10.390;2023-06-10T02:46:31;6.90;;;2.53;;
77324;SDS011;66387;53.440;10.390;2023-06-10T02:48:57;6.37;;;2.50;;
77324;SDS011;66387;53.440;10.390;2023-06-10T02:51:22;5.53;;;3.43;;
77324;SDS011;66387;53.440;10.390;2023-06-10T02:53:47;4.17;;;2.57;;
77324;SDS011;66387;53.440;10.390;2023-06-10T02:56:13;4.93;;;2.77;;
77324;SDS011;66387;53.440;10.390;2023-06-10T02:58:40;5.70;;;2.55;;
77324;SDS011;66387;53.440;10.390;2023-06-10T03:01:06;5.55;;;2.50;;
77324;SDS011;66387;53.440;10.390;2023-06-10T03:03:32;5.73;;;2.93;;
77324;SDS011;66387;53.440;10.390;2023-06-10T03:05:58;5.22;;;2.03;;
77324;SDS011;66387;53.440;10.390;2023-06-10T03:08:24;4.70;;;2.20;;
77324;SDS011;66387;53.440;10.390;2023-06-10T03:10:50;7.53;;;3.17;;
77324;SDS011;66387;53.440;10.390;2023-06-10T03:13:15;4.83;;;2.50;;
77324;SDS011;66387;53.440;10.390;2023-06-10T03:15:40;5.33;;;3.60;;
77324;SDS011;66387;53.440;10.390;2023-06-10T03:18:06;6.03;;;3.53;;
77324;SDS011;66387;53.440;10.390;2023-06-10T03:20:31;5.78;;;2.90;;
77324;SDS011;66387;53.440;10.390;2023-06-10T03:22:56;4.27;;;2.60;;
77324;SDS011;66387;53.440;10.390;2023-06-10T03:25:22;7.45;;;3.40;;
77324;SDS011;66387;53.440;10.390;2023-06-10T03:27:47;6.63;;;2.30;;
77324;SDS011;66387;53.440;10.390;2023-06-10T03:30:13;4.67;;;2.50;;
77324;SDS011;66387;53.440;10.390;2023-06-10T03:32:39;5.85;;;2.60;;
77324;SDS011;66387;53.440;10.390;2023-06-10T03:35:06;5.93;;;2.35;;
77324;SDS011;66387;53.440;10.390;2023-06-10T03:37:31;4.55;;;2.28;;
77324;SDS011;66387;53.440;10.390;2023-06-10T03:39:57;6.00;;;2.40;;
77324;SDS011;66387;53.440;10.390;2023-06-10T03:42:22;5.90;;;2.50;;
77324;SDS011;66387;53.440;10.390;2023-06-10T03:44:47;5.90;;;2.40;;
77324;SDS011;66387;53.440;10.390;2023-06-10T03:47:12;5.37;;;2.77;;
77324;SDS011;66387;53.440;10.390;2023-06-10T03:49:38;6.60;;;2.23;;
77324;SDS011;66387;53.440;10.390;2023-06-10T03:52:05;6.43;;;3.50;;
77324;SDS011;66387;53.440;10.390;2023-06-10T03:54:31;4.80;;;2.40;;
77324;SDS011;66387;53.440;10.390;2023-06-10T03:56:56;3.00;;;2.60;;
77324;SDS011;66387;53.440;10.390;2023-06-10T03:59:22;6.60;;;2.37;;
77324;SDS011;66387;53.440;10.390;2023-06-10T04:01:47;3.20;;;1.88;;
77324;SDS011;66387;53.440;10.390;2023-06-10T04:04:15;7.80;;;2.70;;
77324;SDS011;66387;53.440;10.390;2023-06-10T04:06:43;5.18;;;2.28;;
77324;SDS011;66387;53.440;10.390;2023-06-10T04:09:09;5.20;;;2.55;;
77324;SDS011;66387;53.440;10.390;2023-06-10T04:11:35;7.53;;;2.67;;
77324;SDS011;66387;53.440;10.390;2023-06-10T04:14:00;6.32;;;2.70;;
77324;SDS011;66387;53.440;10.390;2023-06-10T04:16:26;4.32;;;3.00;;
77324;SDS011;66387;53.440;10.390;2023-06-10T04:18:51;5.40;;;2.88;;
77324;SDS011;66387;53.440;10.390;2023-06-10T04:21:16;3.63;;;1.73;;
77324;SDS011;66387;53.440;10.390;2023-06-10T04:23:42;4.20;;;2.23;;
77324;SDS011;66387;53.440;10.390;2023-06-10T04:26:07;7.97;;;2.43;;
77324;SDS011;66387;53.440;10.390;2023-06-10T04:28:32;5.20;;;2.47;;
77324;SDS011;66387;53.440;10.390;2023-06-10T04:30:58;5.93;;;2.10;;
77324;SDS011;66387;53.440;10.390;2023-06-10T04:33:23;6.30;;;2.40;;
77324;SDS011;66387;53.440;10.390;2023-06-10T04:35:49;4.88;;;2.15;;
77324;SDS011;66387;53.440;10.390;2023-06-10T04:38:15;5.18;;;2.53;;
77324;SDS011;66387;53.440;10.390;2023-06-10T04:40:40;3.57;;;1.97;;
77324;SDS011;66387;53.440;10.390;2023-06-10T04:43:06;5.25;;;2.10;;
77324;SDS011;66387;53.440;10.390;2023-06-10T04:45:31;5.30;;;2.40;;
77324;SDS011;66387;53.440;10.390;2023-06-10T04:47:56;5.60;;;2.30;;
77324;SDS011;66387;53.440;10.390;2023-06-10T04:50:22;5.25;;;2.05;;
77324;SDS011;66387;53.440;10.390;2023-06-10T04:52:48;3.87;;;1.87;;
77324;SDS011;66387;53.440;10.390;2023-06-10T04:55:13;3.90;;;1.80;;
77324;SDS011;66387;53.440;10.390;2023-06-10T04:57:38;6.40;;;2.73;;
77324;SDS011;66387;53.440;10.390;2023-06-10T05:00:04;6.07;;;2.45;;
77324;SDS011;66387;53.440;10.390;2023-06-10T05:02:31;3.55;;;1.92;;
77324;SDS011;66387;53.440;10.390;2023-06-10T05:04:56;4.22;;;1.80;;
77324;SDS011;66387;53.440;10.390;2023-06-10T05:07:22;7.13;;;2.22;;
77324;SDS011;66387;53.440;10.390;2023-06-10T05:09:48;4.25;;;2.00;;
77324;SDS011;66387;53.440;10.390;2023-06-10T05:12:13;7.47;;;3.30;;
77324;SDS011;66387;53.440;10.390;2023-06-10T05:14:38;7.30;;;2.40;;
77324;SDS011;66387;53.440;10.390;2023-06-10T05:17:04;4.40;;;1.70;;
77324;SDS011;66387;53.440;10.390;2023-06-10T05:19:31;8.15;;;2.53;;
77324;SDS011;66387;53.440;10.390;2023-06-10T05:21:56;5.50;;;1.98;;
77324;SDS011;66387;53.440;10.390;2023-06-10T05:24:22;4.22;;;2.17;;
77324;SDS011;66387;53.440;10.390;2023-06-10T05:26:48;4.18;;;1.85;;
77324;SDS011;66387;53.440;10.390;2023-06-10T05:29:13;4.70;;;1.90;;
77324;SDS011;66387;53.440;10.390;2023-06-10T05:31:40;7.75;;;2.20;;
77324;SDS011;66387;53.440;10.390;2023-06-10T05:34:05;6.25;;;3.60;;
77324;SDS011;66387;53.440;10.390;2023-06-10T05:36:31;4.50;;;2.00;;
77324;SDS011;66387;53.440;10.390;2023-06-10T05:38:57;6.07;;;1.95;;
77324;SDS011;66387;53.440;10.390;2023-06-10T05:41:22;6.30;;;2.03;;
77324;SDS011;66387;53.440;10.390;2023-06-10T05:43:47;5.13;;;2.00;;
77324;SDS011;66387;53.440;10.390;2023-06-10T05:46:13;8.30;;;1.83;;
77324;SDS011;66387;53.440;10.390;2023-06-10T05:48:38;5.87;;;2.60;;
77324;SDS011;66387;53.440;10.390;2023-06-10T05:51:03;3.87;;;2.33;;
77324;SDS011;66387;53.440;10.390;2023-06-10T05:53:29;7.23;;;2.13;;
77324;SDS011;66387;53.440;10.390;2023-06-10T05:55:54;4.55;;;2.08;;
77324;SDS011;66387;53.440;10.390;2023-06-10T05:58:22;6.55;;;2.45;;
77324;SDS011;66387;53.440;10.390;2023-06-10T06:00:48;4.13;;;1.90;;
77324;SDS011;66387;53.440;10.390;2023-06-10T06:03:13;6.77;;;2.20;;
77324;SDS011;66387;53.440;10.390;2023-06-10T06:05:39;4.47;;;1.93;;
77324;SDS011;66387;53.440;10.390;2023-06-10T06:08:04;6.53;;;2.80;;
77324;SDS011;66387;53.440;10.390;2023-06-10T06:10:30;7.38;;;2.13;;
77324;SDS011;66387;53.440;10.390;2023-06-10T06:12:56;8.05;;;2.03;;
77324;SDS011;66387;53.440;10.390;2023-06-10T06:15:21;5.75;;;2.15;;
77324;SDS011;66387;53.440;10.390;2023-06-10T06:17:46;5.43;;;1.93;;
77324;SDS011;66387;53.440;10.390;2023-06-10T06:20:12;7.70;;;2.20;;
77324;SDS011;66387;53.440;10.390;2023-06-10T06:22:37;6.07;;;2.43;;
77324;SDS011;66387;53.440;10.390;2023-06-10T06:25:02;5.80;;;2.30;;
77324;SDS011;66387;53.440;10.390;2023-06-10T06:27:28;3.55;;;1.88;;
77324;SDS011;66387;53.440;10.390;2023-06-10T06:29:53;4.22;;;2.00;;
77324;SDS011;66387;53.440;10.390;2023-06-10T06:32:18;5.90;;;2.47;;
77324;SDS011;66387;53.440;10.390;2023-06-10T06:34:44;5.82;;;2.55;;
77324;SDS011;66387;53.440;10.390;2023-06-10T06:37:09;4.90;;;2.10;;
77324;SDS011;66387;53.440;10.390;2023-06-10T06:39:35;5.07;;;2.50;;
77324;SDS011;66387;53.440;10.390;2023-06-10T06:42:00;5.07;;;1.90;;
77324;SDS011;66387;53.440;10.390;2023-06-10T06:44:25;4.47;;;1.70;;
77324;SDS011;66387;53.440;10.390;2023-06-10T06:46:50;4.37;;;2.40;;
77324;SDS011;66387;53.440;10.390;2023-06-10T06:49:15;5.87;;;2.10;;
77324;SDS011;66387;53.440;10.390;2023-06-10T06:51:41;3.53;;;2.20;;
77324;SDS011;66387;53.440;10.390;2023-06-10T06:54:06;4.50;;;2.20;;
77324;SDS011;66387;53.440;10.390;2023-06-10T06:56:31;5.57;;;2.20;;
77324;SDS011;66387;53.440;10.390;2023-06-10T06:58:57;8.00;;;2.72;;
77324;SDS011;66387;53.440;10.390;2023-06-10T07:01:22;5.10;;;2.23;;
77324;SDS011;66387;53.440;10.390;2023-06-10T07:03:47;5.67;;;2.47;;
77324;SDS011;66387;53.440;10.390;2023-06-10T07:06:12;5.63;;;2.27;;
77324;SDS011;66387;53.440;10.390;2023-06-10T07:08:38;5.82;;;2.00;;
77324;SDS011;66387;53.440;10.390;2023-06-10T07:11:03;6.33;;;3.23;;
77324;SDS011;66387;53.440;10.390;2023-06-10T07:13:28;5.57;;;2.40;;
77324;SDS011;66387;53.440;10.390;2023-06-10T07:15:54;6.32;;;2.70;;
77324;SDS011;66387;53.440;10.390;2023-06-10T07:18:19;4.83;;;2.40;;
77324;SDS011;66387;53.440;10.390;2023-06-10T07:20:44;7.20;;;2.37;;
77324;SDS011;66387;53.440;10.390;2023-06-10T07:23:09;5.93;;;2.37;;
77324;SDS011;66387;53.440;10.390;2023-06-10T07:25:35;5.17;;;2.13;;
77324;SDS011;66387;53.440;10.390;2023-06-10T07:28:00;3.70;;;2.70;;
77324;SDS011;66387;53.440;10.390;2023-06-10T07:30:25;6.67;;;2.43;;
77324;SDS011;66387;53.440;10.390;2023-06-10T07:32:51;3.53;;;2.37;;
77324;SDS011;66387;53.440;10.390;2023-06-10T07:35:16;4.93;;;2.70;;
77324;SDS011;66387;53.440;10.390;2023-06-10T07:37:42;4.05;;;2.20;;
77324;SDS011;66387;53.440;10.390;2023-06-10T07:40:07;4.20;;;2.10;;
77324;SDS011;66387;53.440;10.390;2023-06-10T07:42:34;6.03;;;2.40;;
77324;SDS011;66387;53.440;10.390;2023-06-10T07:47:26;5.23;;;2.40;;
77324;SDS011;66387;53.440;10.390;2023-06-10T07:49:51;7.93;;;2.37;;
77324;SDS011;66387;53.440;10.390;2023-06-10T07:52:16;4.27;;;2.50;;
77324;SDS011;66387;53.440;10.390;2023-06-10T07:54:41;6.77;;;3.00;;
77324;SDS011;66387;53.440;10.390;2023-06-10T07:57:07;6.13;;;2.83;;
77324;SDS011;66387;53.440;10.390;2023-06-10T07:59:32;7.05;;;3.40;;
77324;SDS011;66387;53.440;10.390;2023-06-10T08:01:58;4.20;;;2.05;;
77324;SDS011;66387;53.440;10.390;2023-06-10T08:04:23;4.70;;;2.70;;
77324;SDS011;66387;53.440;10.390;2023-06-10T08:06:48;5.07;;;2.40;;
77324;SDS011;66387;53.440;10.390;2023-06-10T08:09:14;5.03;;;2.33;;
77324;SDS011;66387;53.440;10.390;2023-06-10T08:11:39;6.10;;;3.03;;
77324;SDS011;66387;53.440;10.390;2023-06-10T08:14:04;6.53;;;2.95;;
77324;SDS011;66387;53.440;10.390;2023-06-10T08:16:30;7.23;;;2.83;;
77324;SDS011;66387;53.440;10.390;2023-06-10T08:18:55;6.80;;;2.53;;
77324;SDS011;66387;53.440;10.390;2023-06-10T08:21:20;7.30;;;2.83;;
77324;SDS011;66387;53.440;10.390;2023-06-10T08:23:45;6.28;;;3.03;;
77324;SDS011;66387;53.440;10.390;2023-06-10T08:26:11;5.13;;;2.80;;
77324;SDS011;66387;53.440;10.390;2023-06-10T08:28:36;4.20;;;2.67;;
77324;SDS011;66387;53.440;10.390;2023-06-10T08:31:01;7.87;;;2.50;;
77324;SDS011;66387;53.440;10.390;2023-06-10T08:33:27;5.47;;;2.70;;
77324;SDS011;66387;53.440;10.390;2023-06-10T08:35:52;7.13;;;2.83;;
77324;SDS011;66387;53.440;10.390;2023-06-10T08:38:17;6.83;;;3.07;;
77324;SDS011;66387;53.440;10.390;2023-06-10T08:40:42;6.13;;;3.13;;
77324;SDS011;66387;53.440;10.390;2023-06-10T08:43:10;6.50;;;2.67;;
77324;SDS011;66387;53.440;10.390;2023-06-10T08:45:40;6.80;;;3.35;;
77324;SDS011;66387;53.440;10.390;2023-06-10T08:48:08;6.18;;;2.95;;
77324;SDS011;66387;53.440;10.390;2023-06-10T08:50:36;5.00;;;2.47;;
77324;SDS011;66387;53.440;10.390;2023-06-10T08:53:04;4.68;;;3.58;;
77324;SDS011;66387;53.440;10.390;2023-06-10T08:55:35;5.47;;;2.85;;
77324;SDS011;66387;53.440;10.390;2023-06-10T08:58:02;5.97;;;3.38;;
77324;SDS011;66387;53.440;10.390;2023-06-10T09:00:29;5.97;;;2.92;;
77324;SDS011;66387;53.440;10.390;2023-06-10T09:02:55;9.48;;;4.10;;
77324;SDS011;66387;53.440;10.390;2023-06-10T09:05:22;5.95;;;3.28;;
77324;SDS011;66387;53.440;10.390;2023-06-10T09:07:48;6.75;;;3.25;;
77324;SDS011;66387;53.440;10.390;2023-06-10T09:10:13;5.60;;;2.97;;
77324;SDS011;66387;53.440;10.390;2023-06-10T09:12:39;6.07;;;3.00;;
77324;SDS011;66387;53.440;10.390;2023-06-10T09:15:04;4.77;;;3.40;;
77324;SDS011;66387;53.440;10.390;2023-06-10T09:17:31;6.72;;;3.03;;
77324;SDS011;66387;53.440;10.390;2023-06-10T09:19:56;5.40;;;3.60;;
77324;SDS011;66387;53.440;10.390;2023-06-10T09:22:22;4.78;;;3.38;;
77324;SDS011;66387;53.440;10.390;2023-06-10T09:24:48;5.97;;;3.33;;
77324;SDS011;66387;53.440;10.390;2023-06-10T09:27:14;7.13;;;3.40;;
77324;SDS011;66387;53.440;10.390;2023-06-10T09:29:53;5.03;;;3.92;;
77324;SDS011;66387;53.440;10.390;2023-06-10T09:34:45;5.47;;;3.25;;
77324;SDS011;66387;53.440;10.390;2023-06-10T09:37:11;5.78;;;3.13;;
77324;SDS011;66387;53.440;10.390;2023-06-10T09:39:38;6.10;;;3.20;;
77324;SDS011;66387;53.440;10.390;2023-06-10T09:42:25;6.28;;;3.33;;
77324;SDS011;66387;53.440;10.390;2023-06-10T09:44:50;6.88;;;3.55;;
77324;SDS011;66387;53.440;10.390;2023-06-10T09:47:22;5.78;;;2.92;;
77324;SDS011;66387;53.440;10.390;2023-06-10T09:49:51;6.40;;;3.33;;
77324;SDS011;66387;53.440;10.390;2023-06-10T09:52:24;5.82;;;3.65;;
77324;SDS011;66387;53.440;10.390;2023-06-10T09:54:51;7.05;;;4.45;;
77324;SDS011;66387;53.440;10.390;2023-06-10T09:57:18;6.05;;;3.97;;
77324;SDS011;66387;53.440;10.390;2023-06-10T09:59:44;8.38;;;3.75;;
77324;SDS011;66387;53.440;10.390;2023-06-10T10:02:14;6.15;;;4.00;;
77324;SDS011;66387;53.440;10.390;2023-06-10T10:04:42;6.22;;;3.55;;
77324;SDS011;66387;53.440;10.390;2023-06-10T10:07:09;5.13;;;3.80;;
77324;SDS011;66387;53.440;10.390;2023-06-10T10:09:37;8.23;;;3.95;;
77324;SDS011;66387;53.440;10.390;2023-06-10T10:12:10;6.40;;;4.03;;
77324;SDS011;66387;53.440;10.390;2023-06-10T10:14:37;7.05;;;3.70;;
77324;SDS011;66387;53.440;10.390;2023-06-10T10:17:14;6.68;;;3.90;;
77324;SDS011;66387;53.440;10.390;2023-06-10T10:19:43;4.38;;;3.85;;
77324;SDS011;66387;53.440;10.390;2023-06-10T10:22:15;6.38;;;3.58;;
77324;SDS011;66387;53.440;10.390;2023-06-10T10:24:52;5.45;;;3.70;;
77324;SDS011;66387;53.440;10.390;2023-06-10T10:27:21;6.82;;;3.63;;
77324;SDS011;66387;53.440;10.390;2023-06-10T10:29:53;5.68;;;3.75;;
77324;SDS011;66387;53.440;10.390;2023-06-10T10:32:21;6.50;;;4.40;;
77324;SDS011;66387;53.440;10.390;2023-06-10T10:35:11;7.47;;;4.30;;
77324;SDS011;66387;53.440;10.390;2023-06-10T10:37:40;6.90;;;4.00;;
77324;SDS011;66387;53.440;10.390;2023-06-10T10:40:06;6.40;;;3.72;;
77324;SDS011;66387;53.440;10.390;2023-06-10T10:42:33;8.30;;;4.47;;
77324;SDS011;66387;53.440;10.390;2023-06-10T10:47:27;7.53;;;4.47;;
77324;SDS011;66387;53.440;10.390;2023-06-10T10:49:54;7.75;;;4.35;;
77324;SDS011;66387;53.440;10.390;2023-06-10T10:52:19;6.70;;;3.80;;
77324;SDS011;66387;53.440;10.390;2023-06-10T10:54:45;5.63;;;4.40;;
77324;SDS011;66387;53.440;10.390;2023-06-10T10:57:12;8.90;;;4.93;;
77324;SDS011;66387;53.440;10.390;2023-06-10T10:59:57;7.05;;;5.28;;
77324;SDS011;66387;53.440;10.390;2023-06-10T11:02:34;7.57;;;4.93;;
77324;SDS011;66387;53.440;10.390;2023-06-10T11:05:03;5.10;;;4.60;;
77324;SDS011;66387;53.440;10.390;2023-06-10T11:07:30;7.13;;;4.47;;
77324;SDS011;66387;53.440;10.390;2023-06-10T11:10:00;8.32;;;4.45;;
77324;SDS011;66387;53.440;10.390;2023-06-10T11:12:40;6.22;;;4.60;;
77324;SDS011;66387;53.440;10.390;2023-06-10T11:15:05;8.40;;;4.85;;
77324;SDS011;66387;53.440;10.390;2023-06-10T11:17:31;5.03;;;4.40;;
77324;SDS011;66387;53.440;10.390;2023-06-10T11:19:56;7.40;;;4.77;;
77324;SDS011;66387;53.440;10.390;2023-06-10T11:22:23;7.18;;;4.43;;
77324;SDS011;66387;53.440;10.390;2023-06-10T11:24:52;6.38;;;5.05;;
77324;SDS011;66387;53.440;10.390;2023-06-10T11:27:21;8.18;;;5.20;;
77324;SDS011;66387;53.440;10.390;2023-06-10T11:32:28;7.43;;;4.70;;
77324;SDS011;66387;53.440;10.390;2023-06-10T11:34:56;6.13;;;4.10;;
77324;SDS011;66387;53.440;10.390;2023-06-10T11:37:21;9.97;;;4.60;;
77324;SDS011;66387;53.440;10.390;2023-06-10T11:39:47;5.50;;;4.18;;
77324;SDS011;66387;53.440;10.390;2023-06-10T11:42:12;7.18;;;4.97;;
77324;SDS011;66387;53.440;10.390;2023-06-10T11:44:38;8.93;;;4.87;;
77324;SDS011;66387;53.440;10.390;2023-06-10T11:47:03;7.87;;;4.93;;
77324;SDS011;66387;53.440;10.390;2023-06-10T11:49:29;6.45;;;4.30;;
77324;SDS011;66387;53.440;10.390;2023-06-10T11:51:54;6.23;;;4.20;;
77324;SDS011;66387;53.440;10.390;2023-06-10T11:54:20;7.55;;;4.25;;
77324;SDS011;66387;53.440;10.390;2023-06-10T11:56:47;7.63;;;5.30;;
77324;SDS011;66387;53.440;10.390;2023-06-10T11:59:13;6.40;;;4.20;;
77324;SDS011;66387;53.440;10.390;2023-06-10T12:01:42;8.88;;;4.60;;
77324;SDS011;66387;53.440;10.390;2023-06-10T12:04:10;5.82;;;4.00;;
77324;SDS011;66387;53.440;10.390;2023-06-10T12:06:37;6.72;;;4.50;;
77324;SDS011;66387;53.440;10.390;2023-06-10T12:09:12;6.78;;;4.90;;
77324;SDS011;66387;53.440;10.390;2023-06-10T12:11:38;7.10;;;4.75;;
77324;SDS011;66387;53.440;10.390;2023-06-10T12:14:04;6.18;;;4.60;;
77324;SDS011;66387;53.440;10.390;2023-06-10T12:16:30;6.28;;;4.93;;
77324;SDS011;66387;53.440;10.390;2023-06-10T12:19:00;5.68;;;4.78;;
77324;SDS011;66387;53.440;10.390;2023-06-10T12:21:27;6.30;;;4.05;;
77324;SDS011;66387;53.440;10.390;2023-06-10T12:23:59;4.77;;;4.20;;
77324;SDS011;66387;53.440;10.390;2023-06-10T12:26:36;11.00;;;5.10;;
77324;SDS011;66387;53.440;10.390;2023-06-10T12:29:12;5.47;;;4.68;;
77324;SDS011;66387;53.440;10.390;2023-06-10T12:31:52;7.70;;;4.38;;
77324;SDS011;66387;53.440;10.390;2023-06-10T12:34:32;5.80;;;4.32;;
77324;SDS011;66387;53.440;10.390;2023-06-10T12:36:59;6.50;;;4.65;;
77324;SDS011;66387;53.440;10.390;2023-06-10T12:39:25;7.50;;;4.60;;
77324;SDS011;66387;53.440;10.390;2023-06-10T12:41:51;9.32;;;4.85;;
77324;SDS011;66387;53.440;10.390;2023-06-10T12:44:17;5.57;;;4.55;;
77324;SDS011;66387;53.440;10.390;2023-06-10T12:46:42;5.60;;;4.07;;
77324;SDS011;66387;53.440;10.390;2023-06-10T12:49:07;6.47;;;4.33;;
77324;SDS011;66387;53.440;10.390;2023-06-10T12:51:32;5.13;;;4.43;;
77324;SDS011;66387;53.440;10.390;2023-06-10T12:54:00;6.18;;;4.07;;
77324;SDS011;66387;53.440;10.390;2023-06-10T12:56:25;6.83;;;4.23;;
77324;SDS011;66387;53.440;10.390;2023-06-10T12:58:51;5.22;;;4.40;;
77324;SDS011;66387;53.440;10.390;2023-06-10T13:01:16;5.10;;;4.60;;
77324;SDS011;66387;53.440;10.390;2023-06-10T13:03:41;9.00;;;4.50;;
77324;SDS011;66387;53.440;10.390;2023-06-10T13:06:07;4.67;;;4.10;;
77324;SDS011;66387;53.440;10.390;2023-06-10T13:08:32;6.60;;;4.00;;
77324;SDS011;66387;53.440;10.390;2023-06-10T13:10:57;6.30;;;4.50;;
77324;SDS011;66387;53.440;10.390;2023-06-10T13:13:23;5.68;;;4.75;;
77324;SDS011;66387;53.440;10.390;2023-06-10T13:15:48;5.53;;;4.88;;
77324;SDS011;66387;53.440;10.390;2023-06-10T13:18:15;7.15;;;4.78;;
77324;SDS011;66387;53.440;10.390;2023-06-10T13:20:40;5.85;;;4.32;;
77324;SDS011;66387;53.440;10.390;2023-06-10T13:23:05;7.07;;;4.70;;
77324;SDS011;66387;53.440;10.390;2023-06-10T13:25:31;5.57;;;4.47;;
77324;SDS011;66387;53.440;10.390;2023-06-10T13:27:56;7.80;;;4.50;;
77324;SDS011;66387;53.440;10.390;2023-06-10T13:30:21;8.35;;;5.30;;
77324;SDS011;66387;53.440;10.390;2023-06-10T13:32:46;6.47;;;5.00;;
77324;SDS011;66387;53.440;10.390;2023-06-10T13:35:12;6.07;;;4.20;;
77324;SDS011;66387;53.440;10.390;2023-06-10T13:37:37;6.57;;;4.57;;
77324;SDS011;66387;53.440;10.390;2023-06-10T13:40:02;5.23;;;4.00;;
77324;SDS011;66387;53.440;10.390;2023-06-10T13:42:28;5.05;;;4.35;;
77324;SDS011;66387;53.440;10.390;2023-06-10T13:44:54;5.15;;;4.28;;
77324;SDS011;66387;53.440;10.390;2023-06-10T13:47:19;6.85;;;5.07;;
77324;SDS011;66387;53.440;10.390;2023-06-10T13:49:45;7.90;;;4.93;;
77324;SDS011;66387;53.440;10.390;2023-06-10T13:52:11;7.43;;;5.15;;
77324;SDS011;66387;53.440;10.390;2023-06-10T13:54:36;6.23;;;4.60;;
77324;SDS011;66387;53.440;10.390;2023-06-10T13:57:02;5.37;;;4.43;;
77324;SDS011;66387;53.440;10.390;2023-06-10T13:59:27;8.48;;;4.95;;
77324;SDS011;66387;53.440;10.390;2023-06-10T14:01:52;6.27;;;4.60;;
77324;SDS011;66387;53.440;10.390;2023-06-10T14:04:18;6.13;;;4.40;;
77324;SDS011;66387;53.440;10.390;2023-06-10T14:06:43;7.37;;;4.03;;
77324;SDS011;66387;53.440;10.390;2023-06-10T14:09:09;5.65;;;3.78;;
77324;SDS011;66387;53.440;10.390;2023-06-10T14:11:35;8.95;;;4.43;;
77324;SDS011;66387;53.440;10.390;2023-06-10T14:14:00;6.90;;;4.47;;
77324;SDS011;66387;53.440;10.390;2023-06-10T14:16:26;5.03;;;3.75;;
77324;SDS011;66387;53.440;10.390;2023-06-10T14:18:52;5.90;;;3.50;;
77324;SDS011;66387;53.440;10.390;2023-06-10T14:21:17;4.57;;;3.58;;
77324;SDS011;66387;53.440;10.390;2023-06-10T14:23:42;6.43;;;3.83;;
77324;SDS011;66387;53.440;10.390;2023-06-10T14:26:08;8.13;;;3.85;;
77324;SDS011;66387;53.440;10.390;2023-06-10T14:28:34;7.03;;;3.38;;
77324;SDS011;66387;53.440;10.390;2023-06-10T14:30:59;5.30;;;3.33;;
77324;SDS011;66387;53.440;10.390;2023-06-10T14:33:24;5.83;;;3.93;;
77324;SDS011;66387;53.440;10.390;2023-06-10T14:35:50;9.87;;;3.83;;
77324;SDS011;66387;53.440;10.390;2023-06-10T14:38:15;8.33;;;3.63;;
77324;SDS011;66387;53.440;10.390;2023-06-10T14:40:40;7.28;;;3.70;;
77324;SDS011;66387;53.440;10.390;2023-06-10T14:43:05;8.00;;;3.80;;